Surat Thani, Thaïlande

09:11 ICT le 21 octobre 2014 (GMT +0700)
Surat Thani | Change Station
CLOSE
Current Station
Aéroport
Location: Surat Thani,
Altitude: 23 ft
Stations météo à proximité

Alt. 23 ft 9.13 °N, 99.15 °E | Updated 11 minutes ago

Scattered Clouds
Nuages épars
79 ° F
Paraît 79 ° F
N
0
Vent Variable Vent de Nord

Aujourd'hui
Haut(e) -- | Bas -- ° F
--% Risque de précip.
Hier
Haut(e) -- | Bas -- ° F
Precip. -- pouce
6:11 AM 6:04 PM
Lune descendante, 8% visible
Pression 29.95 pouce
Visibilité 4.3 Miles terrestres
Nuages Peu 2000 ft
Nuages épars 30000 ft
Point de rosée 79 ° F
Humidité 100%
Précipitations 0.00 pouce
Profondeur de la couche neigeuse Non disponible.
UV 5 sur 12
Pollen Non disponible.
Qualité de l'air Non disponible.
Flu Activity Non disponible.
METAR VTSB 210200Z 00000KT 7000 FEW020 SCT300 26/26 Q1014 A2996

More Conditions Fewer Conditions

Pression 29.95 pouce
Visibilité 4.3 Miles terrestres
Nuages Peu 2000 ft
Nuages épars 30000 ft
Point de rosée 79 ° F
Humidité 100%
Précipitations 0.00 pouce
Profondeur de la couche neigeuse Non disponible.
UV 5 sur 12
Pollen Non disponible.
Qualité de l'air Non disponible.
Flu Activity Non disponible.
METAR VTSB 210200Z 00000KT 7000 FEW020 SCT300 26/26 Q1014 A2996

More Conditions Fewer Conditions

10-Day Weather Forecast

Almanac

Astronomie

Oct. 21, 2014 Lever Coucher
Temps réel 06:11 ICT 18:04 ICT
Crépuscule civil 05:50 ICT 18:25 ICT
Crépuscule nautique 05:25 ICT 18:50 ICT
Crépuscule astronomique 05:01 ICT 19:15 ICT
Lune 03:56 ICT 16:16 ICT
Durée de lumière visible 12h 35m
Longueur du jour
11h 52m
Tomorrow will be 0m 28s shorter.
Lune descendante, 8% of the Moon is Illuminated
Oct 20
Lune descendante
Oct 23
Nouveau
Oct 30
Premier quartier
Nov 6
Pleine lune
Nov 14
Dernier quartier

Les extrêmes de température d’hier

Country Highs Country Lows

Community

WunderPhotos

Upload Photos

1,763,572 Photos téléchargées !

Nearby

Qualité de l'air

Not available.

Épaisseur de neige

Not available.

Activité sismique

Ville Distance Mag. Time & Date
No recent earthquake activity has been reported nearby.
Minimum magnitude displayed is 2.5.

Températures des eaux côtières

Lieu Température
Aucun rapport de station

Stations météo à proximité